createdAt,value
2022-09-23T00:01:23.635Z,5.80
2022-09-23T00:04:25.908Z,6.40
2022-09-23T00:07:27.705Z,6.05
2022-09-23T00:10:32.895Z,6.00
2022-09-23T00:13:36.366Z,6.05
2022-09-23T00:16:38.333Z,5.85
2022-09-23T00:19:40.439Z,6.57
2022-09-23T00:22:42.278Z,6.40
2022-09-23T00:25:44.165Z,6.40
2022-09-23T00:28:46.697Z,6.10
2022-09-23T00:31:48.451Z,5.72
2022-09-23T00:34:51.554Z,5.82
2022-09-23T00:37:53.345Z,5.97
2022-09-23T00:40:55.231Z,6.15
2022-09-23T00:43:59.612Z,5.40
2022-09-23T00:47:01.580Z,6.28
2022-09-23T00:50:14.091Z,5.83
2022-09-23T00:53:21.181Z,6.97
2022-09-23T00:56:24.411Z,6.18
2022-09-23T00:59:29.064Z,6.07
2022-09-23T01:02:31.682Z,5.93
2022-09-23T01:05:34.410Z,5.97
2022-09-23T01:08:36.437Z,6.30
2022-09-23T01:11:40.983Z,6.82
2022-09-23T01:15:06.679Z,5.95
2022-09-23T01:18:32.771Z,6.72
2022-09-23T01:21:48.409Z,6.18
2022-09-23T01:25:16.414Z,6.65
2022-09-23T01:28:54.556Z,6.43
2022-09-23T01:32:15.165Z,6.63
2022-09-23T01:35:25.913Z,7.78
2022-09-23T01:38:46.594Z,7.22
2022-09-23T01:41:57.444Z,8.45
2022-09-23T01:45:10.997Z,9.32
2022-09-23T01:48:18.877Z,9.02
2022-09-23T01:51:23.873Z,8.45
2022-09-23T01:54:34.301Z,7.68
2022-09-23T01:57:53.420Z,7.97
2022-09-23T02:01:01.184Z,6.80
2022-09-23T02:04:31.014Z,6.75
2022-09-23T02:07:42.515Z,7.15
2022-09-23T02:10:49.185Z,6.18
2022-09-23T02:14:07.012Z,6.85
2022-09-23T02:17:13.831Z,6.90
2022-09-23T02:20:22.162Z,6.88
2022-09-23T02:23:26.675Z,6.88
2022-09-23T02:26:38.646Z,7.40
2022-09-23T02:29:49.418Z,6.85
2022-09-23T02:33:24.608Z,7.60
2022-09-23T02:36:46.020Z,8.30
2022-09-23T02:40:09.097Z,6.85
2022-09-23T02:43:19.898Z,7.25
2022-09-23T02:46:23.242Z,7.32
2022-09-23T02:49:28.245Z,7.35
2022-09-23T02:52:30.090Z,7.68
2022-09-23T02:55:32.428Z,7.05
2022-09-23T02:58:34.633Z,7.38
2022-09-23T03:02:01.215Z,7.30
2022-09-23T03:05:30.290Z,8.13
2022-09-23T03:08:51.186Z,8.27
2022-09-23T03:12:15.849Z,9.77
2022-09-23T03:15:23.342Z,9.63
2022-09-23T03:18:46.642Z,8.13
2022-09-23T03:25:07.168Z,6.45
2022-09-23T03:28:09.987Z,6.40
2022-09-23T03:34:22.842Z,5.68
2022-09-23T03:37:36.021Z,5.80
2022-09-23T03:40:44.085Z,5.75
2022-09-23T03:43:46.432Z,6.18
2022-09-23T03:46:51.158Z,6.05
2022-09-23T03:49:54.058Z,6.60
2022-09-23T03:55:57.535Z,6.47
2022-09-23T03:58:59.402Z,5.85
2022-09-23T04:02:02.644Z,6.93
2022-09-23T04:05:05.274Z,5.93
2022-09-23T04:08:07.117Z,6.68
2022-09-23T04:11:08.959Z,6.07
2022-09-23T04:14:12.240Z,6.13
2022-09-23T04:17:14.260Z,5.72
2022-09-23T04:20:17.339Z,6.13
2022-09-23T04:23:19.188Z,6.90
2022-09-23T04:26:21.002Z,5.63
2022-09-23T04:29:24.213Z,5.85
2022-09-23T04:32:26.138Z,6.35
2022-09-23T04:35:27.967Z,5.93
2022-09-23T04:38:29.733Z,6.28
2022-09-23T04:41:31.809Z,6.20
2022-09-23T04:44:34.889Z,6.63
2022-09-23T04:47:37.398Z,7.45
2022-09-23T04:50:39.433Z,7.25
2022-09-23T04:53:43.432Z,7.63
2022-09-23T04:56:45.230Z,6.57
2022-09-23T04:59:47.335Z,6.90
2022-09-23T05:02:50.586Z,6.32
2022-09-23T05:05:53.009Z,6.32
2022-09-23T05:08:56.244Z,6.25
2022-09-23T05:11:58.358Z,6.53
2022-09-23T05:15:00.671Z,6.13
2022-09-23T05:18:02.620Z,6.35
2022-09-23T05:21:04.688Z,7.17
2022-09-23T05:24:07.475Z,6.13
2022-09-23T05:27:09.394Z,6.32
2022-09-23T05:30:11.793Z,6.73
2022-09-23T05:33:14.213Z,6.50
2022-09-23T05:39:21.851Z,6.80
2022-09-23T05:42:24.173Z,6.93
2022-09-23T05:45:27.390Z,6.90
2022-09-23T05:48:34.141Z,6.90
2022-09-23T05:51:35.989Z,7.22
2022-09-23T05:54:39.716Z,6.80
2022-09-23T05:57:41.455Z,7.07
2022-09-23T06:00:44.207Z,7.15
2022-09-23T06:03:49.875Z,6.43
2022-09-23T06:06:51.645Z,6.38
2022-09-23T06:09:54.285Z,7.07
2022-09-23T06:12:56.162Z,6.63
2022-09-23T06:15:58.319Z,7.03
2022-09-23T06:19:06.217Z,7.20
2022-09-23T06:22:10.888Z,7.07
2022-09-23T06:25:13.040Z,6.70
2022-09-23T06:28:15.712Z,6.88
2022-09-23T06:31:17.917Z,7.22
2022-09-23T06:34:21.132Z,7.90
2022-09-23T06:37:24.283Z,7.57
2022-09-23T06:40:26.718Z,7.15
2022-09-23T06:43:29.213Z,6.60
2022-09-23T06:46:31.871Z,7.22
2022-09-23T06:52:35.768Z,7.38
2022-09-23T06:55:37.712Z,7.40
2022-09-23T06:58:40.507Z,7.80
2022-09-23T07:04:44.862Z,6.90
2022-09-23T07:07:46.584Z,7.10
2022-09-23T07:10:53.841Z,7.78
2022-09-23T07:13:57.247Z,7.53
2022-09-23T07:16:59.985Z,8.32
2022-09-23T07:20:02.193Z,10.65
2022-09-23T07:23:04.839Z,9.98
2022-09-23T07:26:08.770Z,30.38
2022-09-23T07:29:13.179Z,15.45
2022-09-23T07:32:15.997Z,12.93
2022-09-23T07:41:26.041Z,8.00
2022-09-23T07:44:29.237Z,10.73
2022-09-23T07:47:31.600Z,11.38
2022-09-23T07:50:33.844Z,11.35
2022-09-23T07:53:37.076Z,12.10
2022-09-23T07:56:41.843Z,12.13
2022-09-23T07:59:44.193Z,9.63
2022-09-23T08:02:49.588Z,9.88
2022-09-23T08:05:54.644Z,9.13
2022-09-23T08:09:00.812Z,9.77
2022-09-23T08:12:03.598Z,9.52
2022-09-23T08:15:06.136Z,9.32
2022-09-23T08:18:09.962Z,9.57
2022-09-23T08:21:12.693Z,7.65
2022-09-23T08:24:17.790Z,8.45
2022-09-23T08:27:19.937Z,8.15
2022-09-23T08:30:22.070Z,8.48
2022-09-23T08:33:24.529Z,8.38
2022-09-23T08:36:27.529Z,8.63
2022-09-23T08:39:29.332Z,8.18
2022-09-23T08:42:35.880Z,7.45
2022-09-23T08:45:40.539Z,7.53
2022-09-23T08:48:47.623Z,8.25
2022-09-23T08:51:51.330Z,7.90
2022-09-23T08:54:55.669Z,7.40
2022-09-23T08:58:25.899Z,7.28
2022-09-23T09:01:48.235Z,7.13
2022-09-23T09:05:06.094Z,6.97
2022-09-23T09:08:11.840Z,7.05
2022-09-23T09:11:16.805Z,6.47
2022-09-23T09:14:28.854Z,7.00
2022-09-23T09:17:44.382Z,7.13
2022-09-23T09:21:11.633Z,7.28
2022-09-23T09:24:33.842Z,7.47
2022-09-23T09:27:40.731Z,6.93
2022-09-23T09:30:48.315Z,6.40
2022-09-23T09:34:06.303Z,7.13
2022-09-23T09:37:18.221Z,6.70
2022-09-23T09:40:21.288Z,7.30
2022-09-23T09:43:25.530Z,5.82
2022-09-23T09:46:47.321Z,6.25
2022-09-23T09:50:14.202Z,6.80
2022-09-23T09:53:27.806Z,6.45
2022-09-23T09:56:34.994Z,6.40
2022-09-23T09:59:42.075Z,7.43
2022-09-23T10:02:47.815Z,7.28
2022-09-23T10:05:53.849Z,7.35
2022-09-23T10:09:10.629Z,7.47
2022-09-23T10:12:18.525Z,8.13
2022-09-23T10:15:44.462Z,7.57
2022-09-23T10:18:46.876Z,8.00
2022-09-23T10:21:57.010Z,7.45
2022-09-23T10:25:03.760Z,7.72
2022-09-23T10:28:41.726Z,7.45
2022-09-23T10:31:45.457Z,8.35
2022-09-23T10:34:52.397Z,8.32
2022-09-23T10:38:00.392Z,8.27
2022-09-23T10:41:21.223Z,8.70
2022-09-23T10:45:12.286Z,8.38
2022-09-23T10:48:36.329Z,8.60
2022-09-23T10:52:04.722Z,9.70
2022-09-23T10:55:42.901Z,9.30
2022-09-23T10:59:22.357Z,9.15
2022-09-23T11:02:50.510Z,6.03
2022-09-23T11:05:55.238Z,6.20
2022-09-23T11:09:23.266Z,5.80
2022-09-23T11:12:32.007Z,7.05
2022-09-23T11:15:52.530Z,7.28
2022-09-23T11:19:16.005Z,7.55
2022-09-23T11:22:36.236Z,6.43
2022-09-23T11:26:23.740Z,6.60
2022-09-23T11:29:36.503Z,6.38
2022-09-23T11:33:04.790Z,6.18
2022-09-23T11:36:10.675Z,6.65
2022-09-23T11:39:23.989Z,5.57
2022-09-23T11:42:31.582Z,5.00
2022-09-23T11:45:41.982Z,4.72
2022-09-23T11:48:57.862Z,4.30
2022-09-23T11:52:08.860Z,4.47
2022-09-23T11:55:31.932Z,4.10
2022-09-23T11:58:50.014Z,3.70
2022-09-23T12:02:15.781Z,3.95
2022-09-23T12:05:26.882Z,3.90
2022-09-23T12:08:34.475Z,3.75
2022-09-23T12:11:50.579Z,3.95
2022-09-23T12:15:14.318Z,4.50
2022-09-23T12:19:08.536Z,3.58
2022-09-23T12:22:30.889Z,3.20
2022-09-23T12:25:47.264Z,3.20
2022-09-23T12:28:59.228Z,3.03
2022-09-23T12:32:09.882Z,3.08
2022-09-23T12:35:24.101Z,3.10
2022-09-23T12:38:35.197Z,3.47
2022-09-23T12:41:41.430Z,3.70
2022-09-23T12:44:55.130Z,3.50
2022-09-23T12:48:19.668Z,3.20
2022-09-23T12:51:44.729Z,3.30
2022-09-23T12:54:50.132Z,3.65
2022-09-23T12:57:52.046Z,4.20
2022-09-23T13:01:10.383Z,6.40
2022-09-23T13:04:55.042Z,5.60
2022-09-23T13:08:17.755Z,3.28
2022-09-23T13:11:28.041Z,3.45
2022-09-23T13:14:35.711Z,3.85
2022-09-23T13:17:40.006Z,3.42
2022-09-23T13:20:43.168Z,3.60
2022-09-23T13:24:12.851Z,2.83
2022-09-23T13:27:26.669Z,4.07
2022-09-23T13:30:28.893Z,3.55
2022-09-23T13:33:48.324Z,3.42
2022-09-23T13:36:50.400Z,3.60
2022-09-23T13:40:07.901Z,3.20
2022-09-23T13:43:22.131Z,3.47
2022-09-23T13:46:28.117Z,3.65
2022-09-23T13:49:34.123Z,5.85
2022-09-23T13:52:36.287Z,6.60
2022-09-23T13:55:39.595Z,7.35
2022-09-23T13:58:43.484Z,8.65
2022-09-23T14:01:47.051Z,29.80
2022-09-23T14:04:49.608Z,47.05
2022-09-23T14:07:52.836Z,15.23
2022-09-23T14:10:55.942Z,12.00
2022-09-23T14:14:00.059Z,12.68
2022-09-23T14:17:02.601Z,17.17
2022-09-23T14:20:05.629Z,11.13
2022-09-23T14:23:12.070Z,9.32
2022-09-23T14:26:14.844Z,9.63
2022-09-23T14:32:27.126Z,5.32
2022-09-23T14:35:42.896Z,5.95
2022-09-23T14:38:50.775Z,8.80
2022-09-23T14:41:52.945Z,10.98
2022-09-23T14:44:56.432Z,7.45
2022-09-23T14:48:22.793Z,8.45
2022-09-23T14:51:47.434Z,8.18
2022-09-23T14:54:52.117Z,24.35
2022-09-23T14:58:12.402Z,70.53
2022-09-23T15:01:29.522Z,20.90
2022-09-23T15:04:33.356Z,17.27
2022-09-23T15:07:38.094Z,14.95
2022-09-23T15:10:42.816Z,13.57
2022-09-23T15:13:49.707Z,52.28
2022-09-23T15:16:53.145Z,50.97
2022-09-23T15:19:59.874Z,22.42
2022-09-23T15:23:01.887Z,19.20
2022-09-23T15:26:12.810Z,13.95
2022-09-23T15:29:17.816Z,9.98
2022-09-23T15:32:22.525Z,19.27
2022-09-23T15:35:27.189Z,11.50
2022-09-23T15:38:32.439Z,11.38
2022-09-23T15:41:34.552Z,12.68
2022-09-23T15:44:40.003Z,11.98
2022-09-23T15:47:44.395Z,13.32
2022-09-23T15:50:49.702Z,29.02
2022-09-23T15:53:52.849Z,16.50
2022-09-23T15:56:56.326Z,14.55
2022-09-23T16:00:01.694Z,31.38
2022-09-23T16:03:31.964Z,19.05
2022-09-23T16:06:36.262Z,24.17
2022-09-23T16:09:40.226Z,21.00
2022-09-23T16:12:44.806Z,24.55
2022-09-23T16:15:47.560Z,47.75
2022-09-23T16:18:52.291Z,72.10
2022-09-23T16:21:55.824Z,42.45
2022-09-23T16:24:58.118Z,26.25
2022-09-23T16:28:00.343Z,29.10
2022-09-23T16:31:04.828Z,26.90
2022-09-23T16:34:09.695Z,23.67
2022-09-23T16:37:20.615Z,22.90
2022-09-23T16:40:24.957Z,23.58
2022-09-23T16:43:32.845Z,22.02
2022-09-23T16:46:36.702Z,24.08
2022-09-23T16:49:39.924Z,40.22
2022-09-23T16:52:42.431Z,40.95
2022-09-23T16:55:47.330Z,29.10
2022-09-23T16:58:53.852Z,32.88
2022-09-23T17:02:15.804Z,36.70
2022-09-23T17:05:19.877Z,40.95
2022-09-23T17:08:23.369Z,30.83
2022-09-23T17:11:25.231Z,32.38
2022-09-23T17:14:31.199Z,41.25
2022-09-23T17:17:39.727Z,45.38
2022-09-23T17:20:43.775Z,38.97
2022-09-23T17:23:47.246Z,42.00
2022-09-23T17:26:52.764Z,47.67
2022-09-23T17:29:56.014Z,49.33
2022-09-23T17:32:58.047Z,58.97
2022-09-23T17:36:10.150Z,72.93
2022-09-23T17:39:12.860Z,83.93
2022-09-23T17:42:15.918Z,85.30
2022-09-23T17:45:23.060Z,85.38
2022-09-23T17:48:28.374Z,64.15
2022-09-23T17:51:31.388Z,55.58
2022-09-23T17:54:36.740Z,110.25
2022-09-23T17:57:39.862Z,80.32
2022-09-23T18:00:51.323Z,68.32
2022-09-23T18:04:00.153Z,64.57
2022-09-23T18:07:13.696Z,57.83
2022-09-23T18:10:18.513Z,54.28
2022-09-23T18:13:23.827Z,60.00
2022-09-23T18:19:54.291Z,55.92
2022-09-23T18:23:05.304Z,52.33
2022-09-23T18:26:15.112Z,54.88
2022-09-23T18:29:23.714Z,50.30
2022-09-23T18:32:29.526Z,54.63
2022-09-23T18:35:33.754Z,52.00
2022-09-23T18:38:40.852Z,39.30
2022-09-23T18:41:43.771Z,33.03
2022-09-23T18:44:46.415Z,39.13
2022-09-23T18:48:11.360Z,37.17
2022-09-23T18:51:25.881Z,37.63
2022-09-23T18:54:29.501Z,31.20
2022-09-23T18:57:32.522Z,28.80
2022-09-23T19:00:36.134Z,24.58
2022-09-23T19:03:38.616Z,24.30
2022-09-23T19:06:42.708Z,21.80
2022-09-23T19:09:46.710Z,25.50
2022-09-23T19:12:49.334Z,33.50
2022-09-23T19:15:51.517Z,28.65
2022-09-23T19:18:55.215Z,27.92
2022-09-23T19:22:01.484Z,25.30
2022-09-23T19:25:07.159Z,26.20
2022-09-23T19:28:11.888Z,30.30
2022-09-23T19:31:17.461Z,31.15
2022-09-23T19:34:25.736Z,30.38
2022-09-23T19:37:29.098Z,30.77
2022-09-23T19:40:32.378Z,24.80
2022-09-23T19:43:37.631Z,21.98
2022-09-23T19:46:44.607Z,22.83
2022-09-23T19:49:48.735Z,26.80
2022-09-23T19:52:53.897Z,22.98
2022-09-23T19:55:56.462Z,22.85
2022-09-23T19:58:59.572Z,24.27
2022-09-23T20:02:01.599Z,22.90
2022-09-23T20:05:03.741Z,26.60
2022-09-23T20:08:05.731Z,29.55
2022-09-23T20:11:28.091Z,34.03
2022-09-23T20:14:31.318Z,29.95
2022-09-23T20:20:34.909Z,30.45
2022-09-23T20:23:36.927Z,24.25
2022-09-23T20:26:57.214Z,28.53
2022-09-23T20:30:00.471Z,29.35
2022-09-23T20:33:02.282Z,27.42
2022-09-23T20:36:05.559Z,27.70
2022-09-23T20:39:07.643Z,25.00
2022-09-23T20:42:09.405Z,23.13
2022-09-23T20:45:11.319Z,25.65
2022-09-23T20:48:13.163Z,23.83
2022-09-23T20:51:15.445Z,23.02
2022-09-23T20:54:20.416Z,22.67
2022-09-23T20:57:22.289Z,21.08
2022-09-23T21:00:24.117Z,20.35
2022-09-23T21:03:29.302Z,17.85
2022-09-23T21:06:31.226Z,18.55
2022-09-23T21:09:33.010Z,17.35
2022-09-23T21:12:35.253Z,14.00
2022-09-23T21:15:37.134Z,17.80
2022-09-23T21:18:39.123Z,15.45
2022-09-23T21:21:40.916Z,13.53
2022-09-23T21:25:25.867Z,12.20
2022-09-23T21:28:04.595Z,12.63
2022-09-23T21:31:08.816Z,10.85
2022-09-23T21:34:11.453Z,10.63
2022-09-23T21:37:13.343Z,9.07
2022-09-23T21:40:33.916Z,9.65
2022-09-23T21:43:38.559Z,9.45
2022-09-23T21:46:40.325Z,8.60
2022-09-23T21:49:44.835Z,8.80
2022-09-23T21:52:51.799Z,9.45
2022-09-23T21:55:54.127Z,7.97
2022-09-23T21:58:58.344Z,8.25
2022-09-23T22:02:00.176Z,7.85
2022-09-23T22:05:01.963Z,7.53
2022-09-23T22:08:03.852Z,7.15
2022-09-23T22:11:33.558Z,6.53
2022-09-23T22:14:36.183Z,7.88
2022-09-23T22:17:40.231Z,7.45
2022-09-23T22:20:43.626Z,6.95
2022-09-23T22:23:46.451Z,7.22
2022-09-23T22:26:48.314Z,7.18
2022-09-23T22:30:08.707Z,5.88
2022-09-23T22:33:10.462Z,6.35
2022-09-23T22:36:12.894Z,6.13
2022-09-23T22:39:14.849Z,5.55
2022-09-23T22:42:16.658Z,5.93
2022-09-23T22:45:18.462Z,5.43
2022-09-23T22:48:21.075Z,5.50
2022-09-23T22:51:22.887Z,5.82
2022-09-23T22:54:29.112Z,4.82
2022-09-23T22:57:34.684Z,4.85
2022-09-23T23:00:38.668Z,5.32
2022-09-23T23:03:41.774Z,5.10
2022-09-23T23:06:43.670Z,4.90
2022-09-23T23:09:45.429Z,5.28
2022-09-23T23:12:47.441Z,5.07
2022-09-23T23:15:49.421Z,5.40
2022-09-23T23:18:51.185Z,5.33
2022-09-23T23:21:53.051Z,5.60
2022-09-23T23:24:55.080Z,5.88
2022-09-23T23:27:57.929Z,5.40
2022-09-23T23:34:07.180Z,4.75
2022-09-23T23:37:09.560Z,4.95
2022-09-23T23:40:11.428Z,5.03
2022-09-23T23:43:13.462Z,5.00
2022-09-23T23:46:15.792Z,5.50
2022-09-23T23:49:17.599Z,4.80
2022-09-23T23:52:19.322Z,4.90
2022-09-23T23:55:21.127Z,4.72
2022-09-23T23:58:22.944Z,4.35
